首页
METAR-TAF:

METAR-TAF

机场 :

图勒空军基地

图勒, 格陵兰

纬度: 76-32N, 经度: 068-42W, 海拔: 77米

当前天气观测

该预报发布于25分钟前的16:56 UTC
风速21节,风向东南
温度 -12°C
湿度 92%
气压 1012 hPa
能见度10公里或以上
天空无云

METAR: BGTL 201656Z AUTO 14021KT 9999 CLR M12/M13 A2987 RMK AO2 SLP104 T11171133 TSNO $

时间: 13:21 (17:21 UTC)

预报

该预报发布于2小时和5分钟前的15:16 UTC
预报有效从20日的 15点(UTC)到 21日的 16点(UTC)
风速15节,风向南转南东
能见度10公里或以上
阴天层高于2000英尺
短暂存在
从 20日的 15点(UTC)到 20日的 17点(UTC)
风速18节,风向,有时为24节阵风
能見度: 4000
多云层高于1500英尺
小雪
短暂存在
从 20日的 17点(UTC)到 20日的 22点(UTC)
风速20节,风向,有时为30节阵风
能見度: 1600
高吹雪
成为
从 20日的 19点(UTC)到 20日的 20点(UTC)
风速12节,风向南转西南
能见度10公里或以上
散云层高于1500英尺
成为
从 21日的 07点(UTC)到 21日的 08点(UTC)
风速6节,风向北转东北,在北转东北东南之间变化
能見度: 5000
多云层高于2000英尺
小雪
短暂存在
从 21日的 09点(UTC)到 21日的 11点(UTC)
能見度: 3200
多云层高于800英尺
轻雾
短暂存在
从 21日的 11点(UTC)到 21日的 14点(UTC)
阴天层高于1500英尺

TAF: BGTL 201516Z 2015/2116 15015KT 9999 OVC020 620205 QNH2970INS TEMPO 2015/2017 18018G24KT 4000 -SN BKN015 620156 TEMPO 2017/2022 18020G30KT 1600 BLSN 520009 BECMG 2019/2020 20012KT 9999 NSW SCT015 QNH2975INS BECMG 2107/2108 03006KT 5000 -SN BKN020 620205 QNH2971INS WND 030V130 TEMPO 2109/2111 3200 BR BKN008 620086 TEMPO 2111/2114 OVC015 620156 TXM08/2015Z TNM23/2103Z

超过4000个机场的气象观测和天气预报(METAR&TAF报告)。

可查询的气象台以黄色和红色小点在地图上表示。

将鼠标移到小点上方,可查看气象台名称。

然后点击查看天气观测和预报。

如需切换地图:点击带黑十字的绿色按钮放大地图;点击带横线的绿色按钮缩小地图;或者点击绿色箭头查看邻近地区的地图。


METAR-TAF: